Overview Statistics Trail Chart Weather Telemetry Raw packets
 

This is the latest recevied weather packets stored in our database for station/object N7IGG. If no packets are shown the sender has not sent any weather packets the latest 10 day(s).

<< 59 60 61 62 63 64 65 >>
Time Temp. Humidity Pressure Rain* Wind** Luminosity Snow
1777759729 21.67° C 53% 1014.9 hPa 0 mm - 602 W/m² -
1777759424 21.67° C 53% 1014.9 hPa 0 mm - 647 W/m² -
1777759121 21.67° C 53% 1015 hPa 0 mm - 634 W/m² -
1777758819 21.67° C 54% 1015 hPa 0 mm - 636 W/m² -
1777758515 21.67° C 55% 1015 hPa 0 mm - 662 W/m² -
1777758212 21.11° C 54% 1015.1 hPa 0 mm - 621 W/m² -
1777757909 20.56° C 56% 1015.2 hPa 0 mm - 641 W/m² -
1777757606 20.56° C 58% 1015 hPa 0 mm - 602 W/m² -
1777757305 20.56° C 59% 1015.1 hPa 0 mm - 624 W/m² -
1777757003 20.56° C 63% 1015.1 hPa 0 mm - 641 W/m² -
1777756700 19.44° C 68% 1015.4 hPa 0 mm - 566 W/m² -
1777756395 20° C 67% 1015.3 hPa 0 mm - 621 W/m² -
1777756093 19.44° C 69% 1015.3 hPa 0 mm - 564 W/m² -
1777755790 18.33° C 72% 1015.3 hPa 0 mm - 596 W/m² -
1777755488 18.89° C 72% 1015.4 hPa 0 mm - 563 W/m² -
1777755183 18.89° C 73% 1015.5 hPa 0 mm - 576 W/m² -
1777754881 18.89° C 73% 1015.4 hPa 0 mm - 624 W/m² -
1777754594 18.89° C 74% 1015.7 hPa 0 mm - 641 W/m² -
1777754276 18.89° C 73% 1015.4 hPa 0 mm - 651 W/m² -
1777753973 18.89° C 73% 1015.6 hPa 0 mm - 624 W/m² -
1777753673 18.89° C 73% 1015.8 hPa 0 mm - 597 W/m² -
1777753371 18.89° C 73% 1015.8 hPa 0 mm - 613 W/m² -
1777753069 18.89° C 74% 1015.7 hPa 0 mm - 597 W/m² -
1777752764 18.33° C 74% 1015.9 hPa 0 mm - 577 W/m² -
1777752461 17.78° C 74% 1015.9 hPa 0 mm - 574 W/m² -

* Rain latest hour (hover to see other rain measurements)
** Current wind speed in m/s (hover to see current wind gust speed)